Time;durP1;ratioP1;P1;durP2;ratioP2;P2;SDS_P1;SDS_P2;PMS_P1;PMS_P2;Temp;Humidity;BMP_temperature;BMP_pressure;BME280_temperature;BME280_humidity;BME280_pressure;Samples;Min_cycle;Max_cycle;Signal;HPM_P1;HPM_P2
2023/03/28 00:00:37;;;;;;;;;;;;;;;4.44;72.74;98688.09;4954224;28;19921;-64
2023/03/28 00:03:02;;;;;;;;;;;;;;;4.61;73.38;98691.81;4954649;29;20021;-65
2023/03/28 00:05:28;;;;;;;;;;;;;;;4.55;68.85;98689.47;4944926;29;19997;-64
2023/03/28 00:07:53;;;;;;;;;;;;;;;4.34;65.78;98701.47;4953763;28;20013;-65
2023/03/28 00:10:19;;;;;;;;;;;;;;;4.34;65.82;98697.13;4954537;29;19921;-65
2023/03/28 00:12:44;;;;;;;;;;;;;;;4.29;71.52;98709.41;4949834;29;20009;-64
2023/03/28 00:15:10;;;;;;;;;;;;;;;4.45;72.21;98709.72;4953150;28;20001;-65
2023/03/28 00:17:35;;;;;;;;;;;;;;;4.00;64.30;98711.28;4950689;28;19965;-65
2023/03/28 00:20:03;;;;;;;;;;;;;;;3.78;64.06;98712.88;4954442;29;19919;-65
2023/03/28 00:22:29;;;;;;;;;;;;;;;3.76;66.07;98722.47;4950164;28;19915;-65
2023/03/28 00:24:55;;;;;;;;;;;;;;;3.57;67.16;98723.03;4953004;28;19943;-65
2023/03/28 00:27:21;;;;;;;;;;;;;;;3.44;65.95;98734.72;4950259;29;19952;-65
2023/03/28 00:29:46;;;;;;;;;;;;;;;3.31;68.07;98730.81;4949409;29;19919;-65
2023/03/28 00:32:11;;;;;;;;;;;;;;;2.96;64.98;98727.56;4952203;29;19914;-64
2023/03/28 00:34:36;;;;;;;;;;;;;;;3.06;66.74;98730.69;4954028;29;19953;-64
2023/03/28 00:37:02;;;;;;;;;;;;;;;2.76;65.44;98735.91;4952570;28;19968;-65
2023/03/28 00:39:28;;;;;;;;;;;;;;;2.73;68.33;98737.72;4947474;29;19977;-65
2023/03/28 00:41:54;;;;;;;;;;;;;;;2.47;68.27;98741.88;4953620;28;20549;-64
2023/03/28 00:44:38;;;;;;;;;;;;;;;2.40;69.11;98742.94;4953362;28;19914;-65
2023/03/28 00:47:04;;;;;;;;;;;;;;;2.66;74.97;98751.75;4952762;29;19960;-64
2023/03/28 00:49:29;;;;;;;;;;;;;;;2.71;69.98;98749.84;4944594;29;19918;-65
2023/03/28 00:51:56;;;;;;;;;;;;;;;2.73;70.75;98751.53;4944283;29;20418;-65
2023/03/28 00:54:22;;;;;;;;;;;;;;;2.69;69.15;98754.25;4951966;29;19919;-65
2023/03/28 00:56:48;;;;;;;;;;;;;;;2.55;68.18;98750.28;4952725;29;20407;-65
2023/03/28 00:59:14;;;;;;;;;;;;;;;2.30;68.36;98754.41;4950147;28;19922;-65
2023/03/28 01:01:39;;;;;;;;;;;;;;;2.29;69.57;98755.31;4949613;28;19920;-64
2023/03/28 01:04:05;;;;;;;;;;;;;;;2.23;70.74;98758.91;4959244;29;19969;-64
2023/03/28 01:06:31;;;;;;;;;;;;;;;2.21;69.73;98759.84;4959197;28;20424;-65
2023/03/28 01:08:57;;;;;;;;;;;;;;;2.10;70.56;98758.41;4949032;28;19919;-64
2023/03/28 01:11:22;;;;;;;;;;;;;;;2.08;72.00;98757.56;4952727;28;19918;-65
2023/03/28 01:13:48;;;;;;;;;;;;;;;2.24;70.23;98759.78;4958866;29;19914;-65
2023/03/28 01:16:14;;;;;;;;;;;;;;;2.27;72.83;98762.25;4958972;28;20009;-65
2023/03/28 01:18:40;;;;;;;;;;;;;;;2.60;73.33;98768.28;4959052;29;20407;-65
2023/03/28 01:21:08;;;;;;;;;;;;;;;2.67;69.01;98759.47;4952165;28;19926;-65
2023/03/28 01:23:45;;;;;;;;;;;;;;;2.52;70.14;98760.75;4958379;29;19918;-65
2023/03/28 01:26:36;;;;;;;;;;;;;;;2.53;71.15;98762.44;4958739;28;19921;-63
2023/03/28 01:29:18;;;;;;;;;;;;;;;2.56;72.17;98767.53;4925169;28;19976;-64
2023/03/28 01:31:48;;;;;;;;;;;;;;;2.66;70.42;98772.47;4950577;28;20380;-64
2023/03/28 01:34:33;;;;;;;;;;;;;;;2.53;67.98;98772.78;4958689;28;19928;-65
2023/03/28 01:37:17;;;;;;;;;;;;;;;2.55;74.97;98773.59;4959623;28;20019;-65
2023/03/28 01:39:46;;;;;;;;;;;;;;;2.70;72.74;98774.91;4958024;28;19929;-65
2023/03/28 01:42:30;;;;;;;;;;;;;;;2.76;68.59;98773.91;4954616;29;20116;-65
2023/03/28 01:45:14;;;;;;;;;;;;;;;3.11;72.22;98774.63;4957316;29;19922;-65
2023/03/28 01:47:50;;;;;;;;;;;;;;;3.33;73.66;98775.69;4958160;29;19918;-64
2023/03/28 01:50:21;;;;;;;;;;;;;;;3.11;66.83;98769.44;4958770;28;19921;-65
2023/03/28 01:52:50;;;;;;;;;;;;;;;2.90;66.42;98774.38;4955882;29;19969;-64
2023/03/28 01:55:20;;;;;;;;;;;;;;;2.78;71.83;98782.47;4953290;29;19929;-65
2023/03/28 01:57:50;;;;;;;;;;;;;;;2.64;67.94;98780.25;4954414;28;19927;-65
2023/03/28 02:00:19;;;;;;;;;;;;;;;2.38;68.98;98789.59;4958745;29;19922;-65
2023/03/28 02:02:48;;;;;;;;;;;;;;;2.30;69.22;98790.66;4951451;28;19922;-65
2023/03/28 19:54:07;;;;;;;;;;;;;;;5.40;50.42;98713.94;5457379;23;19993;-64
2023/03/28 19:56:32;;;;;;;;;;;;;;;5.38;50.71;98710.56;4967260;28;19922;-64
2023/03/28 19:58:57;;;;;;;;;;;;;;;5.34;50.99;98707.22;4967678;28;19962;-65
2023/03/28 20:01:22;;;;;;;;;;;;;;;5.35;51.03;98705.47;4963468;28;20672;-64
2023/03/28 20:03:51;;;;;;;;;;;;;;;6.69;82.53;98698.97;4966592;28;20136;-63
2023/03/28 20:06:17;;;;;;;;;;;;;;;7.68;56.40;98696.06;4964208;28;19988;-64
2023/03/28 20:08:42;;;;;;;;;;;;;;;7.13;49.84;98690.88;4969542;28;20415;-64
2023/03/28 20:11:08;;;;;;;;;;;;;;;6.81;50.03;98688.00;4970931;28;19918;-65
2023/03/28 20:13:33;;;;;;;;;;;;;;;6.56;49.67;98684.78;4955339;28;19932;-65
2023/03/28 20:16:01;;;;;;;;;;;;;;;6.39;49.50;98681.16;4964855;28;19918;-64
2023/03/28 20:18:27;;;;;;;;;;;;;;;6.20;50.26;98680.31;4965384;28;19961;-64
2023/03/28 20:20:53;;;;;;;;;;;;;;;6.10;50.05;98689.41;4974458;28;20351;-63
2023/03/28 20:23:19;;;;;;;;;;;;;;;6.00;50.59;98683.75;4968563;28;20268;-64
2023/03/28 20:25:44;;;;;;;;;;;;;;;5.94;51.63;98677.03;4967431;28;19918;-65
2023/03/28 20:28:10;;;;;;;;;;;;;;;5.87;51.24;98678.16;4963867;28;20009;-65
2023/03/28 20:30:35;;;;;;;;;;;;;;;5.83;51.21;98676.63;4964022;28;19930;-62
